Aeroporto :







RITROVATECI SU...

 
LOGIN :

Iscrizione | Disclaimer

   EN    FR    IT 

 









Sommario :    VFR   VFR Marginale   IFR   IFR Intensivo   IFR Molto Intensivo
Visibilità : 
Base nubi : 
>= 8 km
>= 3000ft
5 / 8 km
1000 / 3000 ft
1500m / 5 km
500 / 1000 ft
800 / 1500m
200 / 500 ft
< 800m
< 200 ft
Simboli :   Temporali  Nebbia  Neve Forte  Precipitazioni Forti  Vento > 20 kt






- Altitudine del aeroporto : 454 ft


KIZG - Eastern Slopes Regional

ULTIMO METAR :
  • 171754Z AUTO 10004KT 10SM CLR M01/M14 A3041 RMK AO2 SLP306 T10061139 11006 21156 58033

METARs OBSOLETI :
  • 171654Z AUTO 00000KT 10SM CLR M02/M14 A3044 RMK AO2 SLP318 T10171139
  • 171554Z AUTO VRB03KT 10SM CLR M03/M15 A3048 RMK AO2 SLP332 T10331150
  • 171454Z AUTO 00000KT 10SM CLR M06/M13 A3051 RMK AO2 SLP340 T10611128 58003

TAF N/A



MetMap, La meteo Aeronautica in un colpo d'occhio ! - Copyright ORBIFLY Dicembre 2007 - Disclaimer

ORBIFLY MET'MAP TEAM :

Programmazione e sviluppo : Alexandra Zaïnal
Concezione e sviluppo : Baudouin d'Aumeries
Co-Programmazione e sviluppo : Marc-Olivier Méhu
Supporto tecnico e logistico : Manuel Goepfert
Aiuto per la traduzione : Arnaldo La Scala

Contatto : metmap@orbifly.com




FONTI E CREDITI :

   NOAA